sensor_id;sensor_type;location;lat;lon;timestamp;temperature;humidity
17236;DHT22;8734;59.272;17.780;2023-06-10T00:00:52;6.90;99.90
17236;DHT22;8734;59.272;17.780;2023-06-10T00:03:20;6.90;99.90
17236;DHT22;8734;59.272;17.780;2023-06-10T00:05:50;6.90;99.90
17236;DHT22;8734;59.272;17.780;2023-06-10T00:08:18;6.90;99.90
17236;DHT22;8734;59.272;17.780;2023-06-10T00:10:47;6.90;99.90
17236;DHT22;8734;59.272;17.780;2023-06-10T00:13:16;6.90;99.90
17236;DHT22;8734;59.272;17.780;2023-06-10T00:15:46;6.90;99.90
17236;DHT22;8734;59.272;17.780;2023-06-10T00:18:14;6.80;99.90
17236;DHT22;8734;59.272;17.780;2023-06-10T00:20:43;6.80;99.90
17236;DHT22;8734;59.272;17.780;2023-06-10T00:23:11;6.70;99.90
17236;DHT22;8734;59.272;17.780;2023-06-10T00:25:40;6.60;99.90
17236;DHT22;8734;59.272;17.780;2023-06-10T00:28:08;6.60;99.90
17236;DHT22;8734;59.272;17.780;2023-06-10T00:30:37;6.50;99.90
17236;DHT22;8734;59.272;17.780;2023-06-10T00:33:06;6.50;99.90
17236;DHT22;8734;59.272;17.780;2023-06-10T00:35:35;6.40;99.90
17236;DHT22;8734;59.272;17.780;2023-06-10T00:38:03;6.50;99.90
17236;DHT22;8734;59.272;17.780;2023-06-10T00:40:33;6.50;99.90
17236;DHT22;8734;59.272;17.780;2023-06-10T00:43:07;6.50;99.90
17236;DHT22;8734;59.272;17.780;2023-06-10T00:45:35;6.50;99.90
17236;DHT22;8734;59.272;17.780;2023-06-10T00:48:05;6.40;99.90
17236;DHT22;8734;59.272;17.780;2023-06-10T00:50:35;6.40;99.90
17236;DHT22;8734;59.272;17.780;2023-06-10T00:53:06;6.40;99.90
17236;DHT22;8734;59.272;17.780;2023-06-10T00:55:34;6.30;99.90
17236;DHT22;8734;59.272;17.780;2023-06-10T00:58:03;6.30;99.90
17236;DHT22;8734;59.272;17.780;2023-06-10T01:00:32;6.30;99.90
17236;DHT22;8734;59.272;17.780;2023-06-10T01:03:00;6.30;99.90
17236;DHT22;8734;59.272;17.780;2023-06-10T01:05:30;6.30;99.90
17236;DHT22;8734;59.272;17.780;2023-06-10T01:08:03;6.30;99.90
17236;DHT22;8734;59.272;17.780;2023-06-10T01:10:38;6.40;99.90
17236;DHT22;8734;59.272;17.780;2023-06-10T01:13:08;6.40;99.90
17236;DHT22;8734;59.272;17.780;2023-06-10T01:15:38;6.30;99.90
17236;DHT22;8734;59.272;17.780;2023-06-10T01:18:09;6.30;99.90
17236;DHT22;8734;59.272;17.780;2023-06-10T01:20:44;6.20;99.90
17236;DHT22;8734;59.272;17.780;2023-06-10T01:23:18;6.10;99.90
17236;DHT22;8734;59.272;17.780;2023-06-10T01:25:52;6.10;99.90
17236;DHT22;8734;59.272;17.780;2023-06-10T01:28:27;6.10;99.90
17236;DHT22;8734;59.272;17.780;2023-06-10T01:31:04;6.10;99.90
17236;DHT22;8734;59.272;17.780;2023-06-10T01:33:39;6.00;99.90
17236;DHT22;8734;59.272;17.780;2023-06-10T01:36:09;6.00;99.90
17236;DHT22;8734;59.272;17.780;2023-06-10T01:38:43;6.00;99.90
17236;DHT22;8734;59.272;17.780;2023-06-10T01:41:14;6.00;99.90
17236;DHT22;8734;59.272;17.780;2023-06-10T01:43:44;6.00;99.90
17236;DHT22;8734;59.272;17.780;2023-06-10T01:46:12;5.90;99.90
17236;DHT22;8734;59.272;17.780;2023-06-10T01:48:41;5.90;99.90
17236;DHT22;8734;59.272;17.780;2023-06-10T01:51:10;5.80;99.90
17236;DHT22;8734;59.272;17.780;2023-06-10T01:53:40;5.70;99.90
17236;DHT22;8734;59.272;17.780;2023-06-10T01:56:08;5.70;99.90
17236;DHT22;8734;59.272;17.780;2023-06-10T01:58:36;5.70;99.90
17236;DHT22;8734;59.272;17.780;2023-06-10T02:01:05;5.70;99.90
17236;DHT22;8734;59.272;17.780;2023-06-10T02:03:34;5.70;99.90
17236;DHT22;8734;59.272;17.780;2023-06-10T02:06:03;5.70;99.90
17236;DHT22;8734;59.272;17.780;2023-06-10T02:08:31;5.80;99.90
17236;DHT22;8734;59.272;17.780;2023-06-10T02:11:00;5.80;99.90
17236;DHT22;8734;59.272;17.780;2023-06-10T02:13:29;5.80;99.90
17236;DHT22;8734;59.272;17.780;2023-06-10T02:15:57;5.80;99.90
17236;DHT22;8734;59.272;17.780;2023-06-10T02:18:27;5.90;99.90
17236;DHT22;8734;59.272;17.780;2023-06-10T02:20:55;5.90;99.90
17236;DHT22;8734;59.272;17.780;2023-06-10T02:23:24;5.90;99.90
17236;DHT22;8734;59.272;17.780;2023-06-10T02:25:52;5.90;99.90
17236;DHT22;8734;59.272;17.780;2023-06-10T02:28:21;5.90;99.90
17236;DHT22;8734;59.272;17.780;2023-06-10T02:30:50;5.90;99.90
17236;DHT22;8734;59.272;17.780;2023-06-10T02:33:19;5.90;99.90
17236;DHT22;8734;59.272;17.780;2023-06-10T02:35:47;5.90;99.90
17236;DHT22;8734;59.272;17.780;2023-06-10T02:38:16;5.90;99.90
17236;DHT22;8734;59.272;17.780;2023-06-10T02:40:45;5.90;99.90
17236;DHT22;8734;59.272;17.780;2023-06-10T02:43:13;5.80;99.90
17236;DHT22;8734;59.272;17.780;2023-06-10T02:45:43;5.80;99.90
17236;DHT22;8734;59.272;17.780;2023-06-10T02:48:12;5.80;99.90
17236;DHT22;8734;59.272;17.780;2023-06-10T02:50:40;5.80;99.90
17236;DHT22;8734;59.272;17.780;2023-06-10T02:53:08;5.90;99.90
17236;DHT22;8734;59.272;17.780;2023-06-10T02:55:37;5.90;99.90
17236;DHT22;8734;59.272;17.780;2023-06-10T02:58:06;5.90;99.90
17236;DHT22;8734;59.272;17.780;2023-06-10T03:00:35;5.90;99.90
17236;DHT22;8734;59.272;17.780;2023-06-10T03:03:05;6.00;99.90
17236;DHT22;8734;59.272;17.780;2023-06-10T03:05:34;6.00;99.90
17236;DHT22;8734;59.272;17.780;2023-06-10T03:08:02;6.00;99.90
17236;DHT22;8734;59.272;17.780;2023-06-10T03:10:30;6.00;99.90
17236;DHT22;8734;59.272;17.780;2023-06-10T03:13:01;6.00;99.90
17236;DHT22;8734;59.272;17.780;2023-06-10T03:15:29;6.10;99.90
17236;DHT22;8734;59.272;17.780;2023-06-10T03:17:59;6.10;99.90
17236;DHT22;8734;59.272;17.780;2023-06-10T03:20:31;6.20;99.90
17236;DHT22;8734;59.272;17.780;2023-06-10T03:23:04;6.30;99.90
17236;DHT22;8734;59.272;17.780;2023-06-10T03:25:34;6.40;99.90
17236;DHT22;8734;59.272;17.780;2023-06-10T03:28:02;6.40;99.90
17236;DHT22;8734;59.272;17.780;2023-06-10T03:30:31;6.70;99.90
17236;DHT22;8734;59.272;17.780;2023-06-10T03:32:59;7.00;99.90
17236;DHT22;8734;59.272;17.780;2023-06-10T03:35:27;7.20;99.90
17236;DHT22;8734;59.272;17.780;2023-06-10T03:37:57;7.30;99.90
17236;DHT22;8734;59.272;17.780;2023-06-10T03:40:26;7.40;99.90
17236;DHT22;8734;59.272;17.780;2023-06-10T03:42:54;7.60;99.90
17236;DHT22;8734;59.272;17.780;2023-06-10T03:45:22;7.80;99.90
17236;DHT22;8734;59.272;17.780;2023-06-10T03:47:51;8.00;99.90
17236;DHT22;8734;59.272;17.780;2023-06-10T03:50:20;8.20;99.90
17236;DHT22;8734;59.272;17.780;2023-06-10T03:52:50;8.30;99.90
17236;DHT22;8734;59.272;17.780;2023-06-10T03:55:20;8.40;99.90
17236;DHT22;8734;59.272;17.780;2023-06-10T03:57:49;8.60;99.90
17236;DHT22;8734;59.272;17.780;2023-06-10T04:00:18;8.70;99.90
17236;DHT22;8734;59.272;17.780;2023-06-10T04:02:48;8.70;99.90
17236;DHT22;8734;59.272;17.780;2023-06-10T04:05:19;8.70;99.90
17236;DHT22;8734;59.272;17.780;2023-06-10T04:07:49;8.70;99.90
17236;DHT22;8734;59.272;17.780;2023-06-10T04:10:19;8.70;99.90
17236;DHT22;8734;59.272;17.780;2023-06-10T04:12:47;8.80;99.90
17236;DHT22;8734;59.272;17.780;2023-06-10T04:15:16;8.80;99.90
17236;DHT22;8734;59.272;17.780;2023-06-10T04:17:44;8.80;99.90
17236;DHT22;8734;59.272;17.780;2023-06-10T04:20:12;8.90;99.90
17236;DHT22;8734;59.272;17.780;2023-06-10T04:22:41;8.90;99.90
17236;DHT22;8734;59.272;17.780;2023-06-10T04:25:10;9.00;99.90
17236;DHT22;8734;59.272;17.780;2023-06-10T04:27:40;9.00;99.90
17236;DHT22;8734;59.272;17.780;2023-06-10T04:30:09;9.10;99.90
17236;DHT22;8734;59.272;17.780;2023-06-10T04:32:37;9.20;99.90
17236;DHT22;8734;59.272;17.780;2023-06-10T04:35:06;9.30;99.90
17236;DHT22;8734;59.272;17.780;2023-06-10T04:37:35;9.40;99.90
17236;DHT22;8734;59.272;17.780;2023-06-10T04:40:05;9.50;99.90
17236;DHT22;8734;59.272;17.780;2023-06-10T04:42:33;9.60;99.90
17236;DHT22;8734;59.272;17.780;2023-06-10T04:45:03;9.60;99.90
17236;DHT22;8734;59.272;17.780;2023-06-10T04:47:33;9.70;99.90
17236;DHT22;8734;59.272;17.780;2023-06-10T04:50:02;9.80;99.90
17236;DHT22;8734;59.272;17.780;2023-06-10T04:52:32;10.00;99.90
17236;DHT22;8734;59.272;17.780;2023-06-10T04:55:01;10.10;99.90
17236;DHT22;8734;59.272;17.780;2023-06-10T04:57:29;10.20;99.90
17236;DHT22;8734;59.272;17.780;2023-06-10T04:59:58;10.30;99.90
17236;DHT22;8734;59.272;17.780;2023-06-10T05:02:27;10.40;99.90
17236;DHT22;8734;59.272;17.780;2023-06-10T05:04:56;10.50;99.90
17236;DHT22;8734;59.272;17.780;2023-06-10T05:07:25;10.60;99.90
17236;DHT22;8734;59.272;17.780;2023-06-10T05:09:53;10.70;99.90
17236;DHT22;8734;59.272;17.780;2023-06-10T05:12:21;10.80;99.90
17236;DHT22;8734;59.272;17.780;2023-06-10T05:14:50;10.80;99.90
17236;DHT22;8734;59.272;17.780;2023-06-10T05:17:18;10.80;99.90
17236;DHT22;8734;59.272;17.780;2023-06-10T05:19:48;10.90;99.90
17236;DHT22;8734;59.272;17.780;2023-06-10T05:22:17;11.00;99.90
17236;DHT22;8734;59.272;17.780;2023-06-10T05:24:45;11.00;99.90
17236;DHT22;8734;59.272;17.780;2023-06-10T05:27:14;11.00;99.90
17236;DHT22;8734;59.272;17.780;2023-06-10T05:29:42;11.10;99.90
17236;DHT22;8734;59.272;17.780;2023-06-10T05:32:12;11.20;99.90
17236;DHT22;8734;59.272;17.780;2023-06-10T05:34:40;11.20;99.90
17236;DHT22;8734;59.272;17.780;2023-06-10T05:37:10;11.40;99.90
17236;DHT22;8734;59.272;17.780;2023-06-10T05:39:38;11.40;99.90
17236;DHT22;8734;59.272;17.780;2023-06-10T05:42:07;11.50;99.90
17236;DHT22;8734;59.272;17.780;2023-06-10T05:44:36;11.60;99.90
17236;DHT22;8734;59.272;17.780;2023-06-10T05:47:04;11.60;99.90
17236;DHT22;8734;59.272;17.780;2023-06-10T05:49:33;11.70;99.90
17236;DHT22;8734;59.272;17.780;2023-06-10T05:52:01;11.80;99.90
17236;DHT22;8734;59.272;17.780;2023-06-10T05:54:31;11.90;99.90
17236;DHT22;8734;59.272;17.780;2023-06-10T05:56:59;12.00;99.90
17236;DHT22;8734;59.272;17.780;2023-06-10T05:59:28;12.10;99.90
17236;DHT22;8734;59.272;17.780;2023-06-10T06:01:56;12.20;99.90
17236;DHT22;8734;59.272;17.780;2023-06-10T06:04:24;12.20;99.90
17236;DHT22;8734;59.272;17.780;2023-06-10T06:06:53;12.40;99.90
17236;DHT22;8734;59.272;17.780;2023-06-10T06:09:21;12.60;99.90
17236;DHT22;8734;59.272;17.780;2023-06-10T06:11:51;12.90;99.90
17236;DHT22;8734;59.272;17.780;2023-06-10T06:14:19;13.10;99.90
17236;DHT22;8734;59.272;17.780;2023-06-10T06:16:47;13.20;99.90
17236;DHT22;8734;59.272;17.780;2023-06-10T06:19:15;13.30;99.90
17236;DHT22;8734;59.272;17.780;2023-06-10T06:21:44;13.30;99.90
17236;DHT22;8734;59.272;17.780;2023-06-10T06:24:12;13.40;99.90
17236;DHT22;8734;59.272;17.780;2023-06-10T06:26:40;13.50;99.90
17236;DHT22;8734;59.272;17.780;2023-06-10T06:29:10;13.60;99.90
17236;DHT22;8734;59.272;17.780;2023-06-10T06:31:38;13.60;99.90
17236;DHT22;8734;59.272;17.780;2023-06-10T06:34:07;13.80;99.90
17236;DHT22;8734;59.272;17.780;2023-06-10T06:36:35;13.90;99.90
17236;DHT22;8734;59.272;17.780;2023-06-10T06:39:03;14.10;99.90
17236;DHT22;8734;59.272;17.780;2023-06-10T06:41:32;14.00;99.90
17236;DHT22;8734;59.272;17.780;2023-06-10T06:44:00;14.00;99.90
17236;DHT22;8734;59.272;17.780;2023-06-10T06:46:31;14.00;99.90
17236;DHT22;8734;59.272;17.780;2023-06-10T06:48:59;14.10;99.90
17236;DHT22;8734;59.272;17.780;2023-06-10T06:51:27;14.20;99.90
17236;DHT22;8734;59.272;17.780;2023-06-10T06:53:55;14.40;99.90
17236;DHT22;8734;59.272;17.780;2023-06-10T06:56:25;14.70;99.90
17236;DHT22;8734;59.272;17.780;2023-06-10T06:58:55;14.90;99.90
17236;DHT22;8734;59.272;17.780;2023-06-10T07:01:24;15.40;99.90
17236;DHT22;8734;59.272;17.780;2023-06-10T07:03:54;15.90;99.90
17236;DHT22;8734;59.272;17.780;2023-06-10T07:06:22;15.90;99.90
17236;DHT22;8734;59.272;17.780;2023-06-10T07:08:51;16.10;99.90
17236;DHT22;8734;59.272;17.780;2023-06-10T07:11:20;16.10;99.90
17236;DHT22;8734;59.272;17.780;2023-06-10T07:13:49;16.10;99.90
17236;DHT22;8734;59.272;17.780;2023-06-10T07:16:17;16.20;99.90
17236;DHT22;8734;59.272;17.780;2023-06-10T07:18:47;16.40;99.90
17236;DHT22;8734;59.272;17.780;2023-06-10T07:21:17;16.80;99.90
17236;DHT22;8734;59.272;17.780;2023-06-10T07:23:45;17.00;99.90
17236;DHT22;8734;59.272;17.780;2023-06-10T07:26:14;17.40;99.90
17236;DHT22;8734;59.272;17.780;2023-06-10T07:28:42;17.70;99.90
17236;DHT22;8734;59.272;17.780;2023-06-10T07:31:10;17.70;99.90
17236;DHT22;8734;59.272;17.780;2023-06-10T07:33:39;17.80;99.90
17236;DHT22;8734;59.272;17.780;2023-06-10T07:36:07;18.10;99.90
17236;DHT22;8734;59.272;17.780;2023-06-10T07:38:37;18.20;99.90
17236;DHT22;8734;59.272;17.780;2023-06-10T07:41:05;18.70;99.90
17236;DHT22;8734;59.272;17.780;2023-06-10T07:43:34;19.00;99.90
17236;DHT22;8734;59.272;17.780;2023-06-10T07:46:02;19.10;99.90
17236;DHT22;8734;59.272;17.780;2023-06-10T07:48:32;19.50;99.90
17236;DHT22;8734;59.272;17.780;2023-06-10T07:51:00;19.80;99.90
17236;DHT22;8734;59.272;17.780;2023-06-10T07:53:29;20.00;99.90
17236;DHT22;8734;59.272;17.780;2023-06-10T07:55:59;20.20;99.90
17236;DHT22;8734;59.272;17.780;2023-06-10T07:58:27;20.60;99.90
17236;DHT22;8734;59.272;17.780;2023-06-10T08:00:55;20.70;99.90
17236;DHT22;8734;59.272;17.780;2023-06-10T08:03:24;20.70;99.90
17236;DHT22;8734;59.272;17.780;2023-06-10T08:05:52;21.00;99.90
17236;DHT22;8734;59.272;17.780;2023-06-10T08:08:20;20.90;99.90
17236;DHT22;8734;59.272;17.780;2023-06-10T08:10:49;21.40;99.90
17236;DHT22;8734;59.272;17.780;2023-06-10T08:13:19;21.40;99.90
17236;DHT22;8734;59.272;17.780;2023-06-10T08:15:47;21.30;99.90
17236;DHT22;8734;59.272;17.780;2023-06-10T08:18:17;20.70;99.90
17236;DHT22;8734;59.272;17.780;2023-06-10T08:20:46;20.70;99.80
17236;DHT22;8734;59.272;17.780;2023-06-10T08:23:14;21.00;99.60
17236;DHT22;8734;59.272;17.780;2023-06-10T08:25:42;21.30;97.60
17236;DHT22;8734;59.272;17.780;2023-06-10T08:28:11;21.10;99.90
17236;DHT22;8734;59.272;17.780;2023-06-10T08:30:40;21.50;99.00
17236;DHT22;8734;59.272;17.780;2023-06-10T08:33:09;21.90;99.00
17236;DHT22;8734;59.272;17.780;2023-06-10T08:35:37;21.90;97.20
17236;DHT22;8734;59.272;17.780;2023-06-10T08:38:05;21.80;97.50
17236;DHT22;8734;59.272;17.780;2023-06-10T08:40:34;21.80;96.10
17236;DHT22;8734;59.272;17.780;2023-06-10T08:43:06;21.80;96.30
17236;DHT22;8734;59.272;17.780;2023-06-10T08:45:35;21.80;96.80
17236;DHT22;8734;59.272;17.780;2023-06-10T08:48:06;22.10;96.00
17236;DHT22;8734;59.272;17.780;2023-06-10T08:50:35;22.80;95.70
17236;DHT22;8734;59.272;17.780;2023-06-10T08:53:06;23.20;94.00
17236;DHT22;8734;59.272;17.780;2023-06-10T08:55:37;23.50;92.40
17236;DHT22;8734;59.272;17.780;2023-06-10T08:58:06;23.50;91.60
17236;DHT22;8734;59.272;17.780;2023-06-10T09:00:35;23.50;91.10
17236;DHT22;8734;59.272;17.780;2023-06-10T09:03:05;23.20;90.80
17236;DHT22;8734;59.272;17.780;2023-06-10T09:05:36;23.20;91.70
17236;DHT22;8734;59.272;17.780;2023-06-10T09:08:06;23.30;90.10
17236;DHT22;8734;59.272;17.780;2023-06-10T09:10:35;22.50;90.40
17236;DHT22;8734;59.272;17.780;2023-06-10T09:13:03;22.30;91.60
17236;DHT22;8734;59.272;17.780;2023-06-10T09:15:32;21.90;91.40
17236;DHT22;8734;59.272;17.780;2023-06-10T09:18:00;21.90;91.40
17236;DHT22;8734;59.272;17.780;2023-06-10T09:20:30;22.10;91.90
17236;DHT22;8734;59.272;17.780;2023-06-10T09:22:59;22.30;91.30
17236;DHT22;8734;59.272;17.780;2023-06-10T09:25:35;22.60;90.20
17236;DHT22;8734;59.272;17.780;2023-06-10T09:28:05;22.90;90.00
17236;DHT22;8734;59.272;17.780;2023-06-10T09:30:40;23.20;90.30
17236;DHT22;8734;59.272;17.780;2023-06-10T09:33:13;23.20;89.70
17236;DHT22;8734;59.272;17.780;2023-06-10T09:35:48;23.00;90.70
17236;DHT22;8734;59.272;17.780;2023-06-10T09:38:20;23.50;90.50
17236;DHT22;8734;59.272;17.780;2023-06-10T09:40:50;23.70;88.60
17236;DHT22;8734;59.272;17.780;2023-06-10T09:43:19;23.80;89.30
17236;DHT22;8734;59.272;17.780;2023-06-10T09:45:48;23.90;85.00
17236;DHT22;8734;59.272;17.780;2023-06-10T09:48:16;24.20;86.30
17236;DHT22;8734;59.272;17.780;2023-06-10T09:50:48;24.10;84.90
17236;DHT22;8734;59.272;17.780;2023-06-10T09:53:17;24.10;83.80
17236;DHT22;8734;59.272;17.780;2023-06-10T09:55:46;24.40;88.40
17236;DHT22;8734;59.272;17.780;2023-06-10T09:58:14;23.90;80.60
17236;DHT22;8734;59.272;17.780;2023-06-10T10:00:43;23.50;82.00
17236;DHT22;8734;59.272;17.780;2023-06-10T10:03:22;23.40;81.20
17236;DHT22;8734;59.272;17.780;2023-06-10T10:05:58;23.50;84.10
17236;DHT22;8734;59.272;17.780;2023-06-10T10:08:27;23.60;84.00
17236;DHT22;8734;59.272;17.780;2023-06-10T10:10:57;24.00;86.90
17236;DHT22;8734;59.272;17.780;2023-06-10T10:13:26;24.50;83.80
17236;DHT22;8734;59.272;17.780;2023-06-10T10:15:57;24.40;80.30
17236;DHT22;8734;59.272;17.780;2023-06-10T10:18:29;24.60;81.70
17236;DHT22;8734;59.272;17.780;2023-06-10T10:21:02;24.70;80.70
17236;DHT22;8734;59.272;17.780;2023-06-10T10:23:34;24.80;79.20
17236;DHT22;8734;59.272;17.780;2023-06-10T10:26:07;23.80;79.90
17236;DHT22;8734;59.272;17.780;2023-06-10T10:28:42;23.90;81.20
17236;DHT22;8734;59.272;17.780;2023-06-10T10:31:16;23.80;80.40
17236;DHT22;8734;59.272;17.780;2023-06-10T10:33:51;23.70;77.30
17236;DHT22;8734;59.272;17.780;2023-06-10T10:36:25;24.10;75.40
17236;DHT22;8734;59.272;17.780;2023-06-10T10:38:54;24.20;72.40
17236;DHT22;8734;59.272;17.780;2023-06-10T10:41:24;24.40;71.90
17236;DHT22;8734;59.272;17.780;2023-06-10T10:43:54;24.80;72.00
17236;DHT22;8734;59.272;17.780;2023-06-10T10:46:22;25.30;74.60
17236;DHT22;8734;59.272;17.780;2023-06-10T10:48:52;25.30;72.30
17236;DHT22;8734;59.272;17.780;2023-06-10T10:51:22;24.60;69.80
17236;DHT22;8734;59.272;17.780;2023-06-10T10:54:12;24.40;70.40
17236;DHT22;8734;59.272;17.780;2023-06-10T10:57:14;24.30;68.10
17236;DHT22;8734;59.272;17.780;2023-06-10T10:59:44;24.20;68.40
17236;DHT22;8734;59.272;17.780;2023-06-10T11:02:16;24.10;69.40
17236;DHT22;8734;59.272;17.780;2023-06-10T11:04:47;24.60;75.40
17236;DHT22;8734;59.272;17.780;2023-06-10T11:07:20;25.00;70.30
17236;DHT22;8734;59.272;17.780;2023-06-10T11:10:01;25.00;66.70
17236;DHT22;8734;59.272;17.780;2023-06-10T11:15:26;25.10;68.20
17236;DHT22;8734;59.272;17.780;2023-06-10T11:18:15;25.50;71.20
17236;DHT22;8734;59.272;17.780;2023-06-10T11:20:57;25.30;72.10
17236;DHT22;8734;59.272;17.780;2023-06-10T11:23:41;25.50;71.20
17236;DHT22;8734;59.272;17.780;2023-06-10T11:26:30;25.80;68.20
17236;DHT22;8734;59.272;17.780;2023-06-10T11:29:08;25.60;68.30
17236;DHT22;8734;59.272;17.780;2023-06-10T11:31:42;26.00;67.70
17236;DHT22;8734;59.272;17.780;2023-06-10T11:34:11;26.20;67.70
17236;DHT22;8734;59.272;17.780;2023-06-10T11:36:41;26.00;66.00
17236;DHT22;8734;59.272;17.780;2023-06-10T11:39:12;26.20;69.20
17236;DHT22;8734;59.272;17.780;2023-06-10T11:41:42;26.20;63.40
17236;DHT22;8734;59.272;17.780;2023-06-10T11:44:11;25.90;66.60
17236;DHT22;8734;59.272;17.780;2023-06-10T11:46:47;25.80;71.10
17236;DHT22;8734;59.272;17.780;2023-06-10T11:49:15;26.00;66.10
17236;DHT22;8734;59.272;17.780;2023-06-10T11:51:44;25.80;64.40
17236;DHT22;8734;59.272;17.780;2023-06-10T11:54:17;26.20;67.00
17236;DHT22;8734;59.272;17.780;2023-06-10T11:56:47;26.00;62.00
17236;DHT22;8734;59.272;17.780;2023-06-10T11:59:16;25.80;64.10
17236;DHT22;8734;59.272;17.780;2023-06-10T12:01:45;25.20;65.50
17236;DHT22;8734;59.272;17.780;2023-06-10T12:04:15;25.00;67.10
17236;DHT22;8734;59.272;17.780;2023-06-10T12:06:47;24.60;65.00
17236;DHT22;8734;59.272;17.780;2023-06-10T12:09:19;24.40;67.00
17236;DHT22;8734;59.272;17.780;2023-06-10T12:11:58;24.50;70.80
17236;DHT22;8734;59.272;17.780;2023-06-10T12:14:55;24.20;71.70
17236;DHT22;8734;59.272;17.780;2023-06-10T12:17:36;24.50;65.00
17236;DHT22;8734;59.272;17.780;2023-06-10T12:20:06;24.90;69.50
17236;DHT22;8734;59.272;17.780;2023-06-10T12:22:39;25.20;66.00
17236;DHT22;8734;59.272;17.780;2023-06-10T12:25:11;25.10;66.10
17236;DHT22;8734;59.272;17.780;2023-06-10T12:27:51;24.90;65.10
17236;DHT22;8734;59.272;17.780;2023-06-10T12:30:20;24.90;67.50
17236;DHT22;8734;59.272;17.780;2023-06-10T12:32:49;25.20;63.50
17236;DHT22;8734;59.272;17.780;2023-06-10T12:35:21;24.90;65.80
17236;DHT22;8734;59.272;17.780;2023-06-10T12:37:55;24.80;64.00
17236;DHT22;8734;59.272;17.780;2023-06-10T12:40:28;24.60;62.90
17236;DHT22;8734;59.272;17.780;2023-06-10T12:43:00;24.00;64.10
17236;DHT22;8734;59.272;17.780;2023-06-10T12:45:29;24.20;65.00
17236;DHT22;8734;59.272;17.780;2023-06-10T12:48:09;24.20;70.50
17236;DHT22;8734;59.272;17.780;2023-06-10T12:50:38;24.30;64.80
17236;DHT22;8734;59.272;17.780;2023-06-10T12:53:07;24.80;65.80
17236;DHT22;8734;59.272;17.780;2023-06-10T12:55:35;24.20;62.10
17236;DHT22;8734;59.272;17.780;2023-06-10T12:58:05;23.90;66.00
17236;DHT22;8734;59.272;17.780;2023-06-10T13:00:33;23.80;64.60
17236;DHT22;8734;59.272;17.780;2023-06-10T13:03:03;24.00;65.80
17236;DHT22;8734;59.272;17.780;2023-06-10T13:05:34;24.20;66.80
17236;DHT22;8734;59.272;17.780;2023-06-10T13:08:04;23.90;66.70
17236;DHT22;8734;59.272;17.780;2023-06-10T13:10:33;23.70;67.40
17236;DHT22;8734;59.272;17.780;2023-06-10T13:13:02;23.80;64.50
17236;DHT22;8734;59.272;17.780;2023-06-10T13:15:34;23.60;63.50
17236;DHT22;8734;59.272;17.780;2023-06-10T13:18:09;23.30;67.00
17236;DHT22;8734;59.272;17.780;2023-06-10T13:20:38;23.40;66.70
17236;DHT22;8734;59.272;17.780;2023-06-10T13:23:06;23.30;65.70
17236;DHT22;8734;59.272;17.780;2023-06-10T13:25:34;23.50;65.00
17236;DHT22;8734;59.272;17.780;2023-06-10T13:28:03;23.60;62.60
17236;DHT22;8734;59.272;17.780;2023-06-10T13:30:33;23.60;62.00
17236;DHT22;8734;59.272;17.780;2023-06-10T13:33:01;23.60;64.10
17236;DHT22;8734;59.272;17.780;2023-06-10T13:35:30;23.60;66.40
17236;DHT22;8734;59.272;17.780;2023-06-10T13:37:58;23.50;63.60
17236;DHT22;8734;59.272;17.780;2023-06-10T13:40:26;23.10;65.20
17236;DHT22;8734;59.272;17.780;2023-06-10T13:42:54;23.00;66.10
17236;DHT22;8734;59.272;17.780;2023-06-10T13:45:23;23.20;66.70
17236;DHT22;8734;59.272;17.780;2023-06-10T13:47:52;23.80;67.50
17236;DHT22;8734;59.272;17.780;2023-06-10T13:50:21;23.60;64.40
17236;DHT22;8734;59.272;17.780;2023-06-10T13:52:49;23.20;66.00
17236;DHT22;8734;59.272;17.780;2023-06-10T13:55:17;23.30;63.90
17236;DHT22;8734;59.272;17.780;2023-06-10T13:57:47;23.00;64.20
17236;DHT22;8734;59.272;17.780;2023-06-10T14:00:16;23.20;66.90
17236;DHT22;8734;59.272;17.780;2023-06-10T14:02:44;23.40;70.30
17236;DHT22;8734;59.272;17.780;2023-06-10T14:05:15;23.50;68.80
17236;DHT22;8734;59.272;17.780;2023-06-10T14:07:43;23.30;67.00
17236;DHT22;8734;59.272;17.780;2023-06-10T14:10:11;23.50;68.10
17236;DHT22;8734;59.272;17.780;2023-06-10T14:12:40;23.50;63.50
17236;DHT22;8734;59.272;17.780;2023-06-10T14:15:09;23.50;65.10
17236;DHT22;8734;59.272;17.780;2023-06-10T14:17:38;23.30;67.60
17236;DHT22;8734;59.272;17.780;2023-06-10T14:20:07;23.30;67.70
17236;DHT22;8734;59.272;17.780;2023-06-10T14:22:37;23.20;66.40
17236;DHT22;8734;59.272;17.780;2023-06-10T14:25:06;23.30;64.30
17236;DHT22;8734;59.272;17.780;2023-06-10T14:27:35;23.10;64.60
17236;DHT22;8734;59.272;17.780;2023-06-10T14:30:04;22.90;64.50
17236;DHT22;8734;59.272;17.780;2023-06-10T14:32:33;23.00;66.40
17236;DHT22;8734;59.272;17.780;2023-06-10T14:35:02;23.30;67.60
17236;DHT22;8734;59.272;17.780;2023-06-10T14:37:31;23.30;66.80
17236;DHT22;8734;59.272;17.780;2023-06-10T14:40:00;23.50;64.90
17236;DHT22;8734;59.272;17.780;2023-06-10T14:42:29;23.30;65.90
17236;DHT22;8734;59.272;17.780;2023-06-10T14:44:58;23.20;64.50
17236;DHT22;8734;59.272;17.780;2023-06-10T14:47:27;23.00;65.20
17236;DHT22;8734;59.272;17.780;2023-06-10T14:49:55;23.10;64.80
17236;DHT22;8734;59.272;17.780;2023-06-10T14:52:23;23.00;65.60
17236;DHT22;8734;59.272;17.780;2023-06-10T14:54:52;23.10;66.60
17236;DHT22;8734;59.272;17.780;2023-06-10T14:57:22;23.30;67.40
17236;DHT22;8734;59.272;17.780;2023-06-10T14:59:50;23.40;68.00
17236;DHT22;8734;59.272;17.780;2023-06-10T15:02:19;23.60;69.00
17236;DHT22;8734;59.272;17.780;2023-06-10T15:04:47;23.40;65.60
17236;DHT22;8734;59.272;17.780;2023-06-10T15:07:16;23.40;67.20
17236;DHT22;8734;59.272;17.780;2023-06-10T15:09:44;23.40;64.10
17236;DHT22;8734;59.272;17.780;2023-06-10T15:12:13;23.40;65.50
17236;DHT22;8734;59.272;17.780;2023-06-10T15:14:42;23.40;68.30
17236;DHT22;8734;59.272;17.780;2023-06-10T15:17:11;23.20;71.40
17236;DHT22;8734;59.272;17.780;2023-06-10T15:19:39;23.40;69.30
17236;DHT22;8734;59.272;17.780;2023-06-10T15:22:08;23.20;66.40
17236;DHT22;8734;59.272;17.780;2023-06-10T15:24:38;22.90;67.80
17236;DHT22;8734;59.272;17.780;2023-06-10T15:27:06;22.40;70.10
17236;DHT22;8734;59.272;17.780;2023-06-10T15:29:35;22.40;70.70
17236;DHT22;8734;59.272;17.780;2023-06-10T15:32:05;22.40;69.10
17236;DHT22;8734;59.272;17.780;2023-06-10T15:34:33;22.50;70.70
17236;DHT22;8734;59.272;17.780;2023-06-10T15:37:03;22.40;71.50
17236;DHT22;8734;59.272;17.780;2023-06-10T15:39:31;22.60;74.40
17236;DHT22;8734;59.272;17.780;2023-06-10T15:42:00;22.50;72.10
17236;DHT22;8734;59.272;17.780;2023-06-10T15:44:28;22.70;73.30
17236;DHT22;8734;59.272;17.780;2023-06-10T15:46:57;22.80;73.50
17236;DHT22;8734;59.272;17.780;2023-06-10T15:49:26;22.80;75.30
17236;DHT22;8734;59.272;17.780;2023-06-10T15:51:55;22.70;73.30
17236;DHT22;8734;59.272;17.780;2023-06-10T15:54:23;22.70;73.20